createdAt,value
2018-09-20T00:00:50.142Z,99.90
2018-09-20T00:03:18.693Z,99.90
2018-09-20T00:05:47.217Z,99.90
2018-09-20T00:08:15.696Z,99.90
2018-09-20T00:10:44.228Z,99.90
2018-09-20T00:13:12.720Z,99.90
2018-09-20T00:15:41.225Z,99.90
2018-09-20T00:18:09.733Z,99.90
2018-09-20T00:20:38.240Z,99.90
2018-09-20T00:23:06.736Z,99.90
2018-09-20T00:25:35.256Z,99.90
2018-09-20T00:28:03.764Z,99.90
2018-09-20T00:30:32.337Z,99.90
2018-09-20T00:33:00.829Z,99.90
2018-09-20T00:35:29.341Z,99.90
2018-09-20T00:37:57.822Z,99.90
2018-09-20T00:40:26.341Z,99.90
2018-09-20T00:42:54.832Z,99.90
2018-09-20T00:45:23.353Z,99.90
2018-09-20T00:47:51.841Z,99.90
2018-09-20T00:50:20.373Z,99.90
2018-09-20T00:52:48.862Z,99.90
2018-09-20T00:55:17.377Z,99.90
2018-09-20T00:57:45.860Z,99.90
2018-09-20T01:00:14.477Z,99.90
2018-09-20T01:02:42.988Z,99.90
2018-09-20T01:05:11.533Z,99.90
2018-09-20T01:07:40.041Z,99.90
2018-09-20T01:10:08.557Z,99.90
2018-09-20T01:12:37.061Z,99.90
2018-09-20T01:15:06.661Z,99.90
2018-09-20T01:17:35.218Z,99.90
2018-09-20T01:20:03.848Z,99.90
2018-09-20T01:22:32.363Z,99.90
2018-09-20T01:25:00.860Z,99.90
2018-09-20T01:27:29.373Z,99.90
2018-09-20T01:29:57.856Z,99.90
2018-09-20T01:32:26.360Z,99.90
2018-09-20T01:34:54.881Z,99.90
2018-09-20T01:37:23.377Z,99.90
2018-09-20T01:39:51.856Z,99.90
2018-09-20T01:42:20.365Z,99.90
2018-09-20T01:44:48.848Z,99.90
2018-09-20T01:47:17.348Z,99.90
2018-09-20T01:49:45.833Z,99.90
2018-09-20T01:52:14.341Z,99.90
2018-09-20T01:54:42.841Z,99.90
2018-09-20T01:57:11.344Z,99.90
2018-09-20T01:59:39.825Z,99.90
2018-09-20T02:02:08.325Z,99.90
2018-09-20T02:04:36.815Z,99.90
2018-09-20T02:07:05.349Z,99.90
2018-09-20T02:09:33.845Z,99.90
2018-09-20T02:12:02.349Z,99.90
2018-09-20T02:14:30.833Z,99.90
2018-09-20T02:16:59.374Z,99.90
2018-09-20T02:19:27.861Z,99.90
2018-09-20T02:21:56.388Z,99.90
2018-09-20T02:24:24.876Z,99.90
2018-09-20T02:26:53.381Z,99.90
2018-09-20T02:29:21.907Z,99.90
2018-09-20T02:31:50.421Z,99.90
2018-09-20T02:34:18.917Z,99.90
2018-09-20T02:36:47.425Z,99.90
2018-09-20T02:39:15.921Z,99.90
2018-09-20T02:41:44.434Z,99.90
2018-09-20T02:44:12.921Z,99.90
2018-09-20T02:46:41.502Z,99.90
2018-09-20T02:49:09.948Z,99.90
2018-09-20T02:51:38.420Z,99.90
2018-09-20T02:54:06.913Z,99.90
2018-09-20T02:56:35.383Z,99.90
2018-09-20T02:59:03.907Z,99.90
2018-09-20T03:02:13.325Z,99.90
2018-09-20T03:04:41.809Z,99.90
2018-09-20T03:07:10.293Z,99.90
2018-09-20T03:09:38.736Z,99.90
2018-09-20T03:12:07.353Z,99.90
2018-09-20T03:14:35.793Z,99.90
2018-09-20T03:17:04.273Z,99.90
2018-09-20T03:19:32.725Z,99.90
2018-09-20T03:22:01.196Z,99.90
2018-09-20T03:24:29.665Z,99.90
2018-09-20T03:26:58.421Z,99.90
2018-09-20T03:29:26.887Z,99.90
2018-09-20T03:31:55.332Z,99.90
2018-09-20T03:34:23.792Z,99.90
2018-09-20T03:36:52.292Z,99.90
2018-09-20T03:39:20.764Z,99.90
2018-09-20T03:41:49.208Z,99.90
2018-09-20T03:44:17.657Z,99.90
2018-09-20T03:46:46.130Z,99.90
2018-09-20T03:49:14.576Z,99.90
2018-09-20T03:51:43.048Z,99.90
2018-09-20T03:54:11.509Z,99.90
2018-09-20T03:56:39.972Z,99.90
2018-09-20T03:59:08.416Z,99.90
2018-09-20T04:01:36.881Z,99.90
2018-09-20T04:04:05.325Z,99.90
2018-09-20T04:06:33.793Z,99.90
2018-09-20T04:09:02.245Z,99.90
2018-09-20T04:11:30.721Z,99.90
2018-09-20T04:13:59.164Z,99.90
2018-09-20T04:16:27.615Z,99.90
2018-09-20T04:18:56.097Z,99.90
2018-09-20T04:21:30.923Z,99.90
2018-09-20T04:24:00.109Z,99.90
2018-09-20T04:26:29.329Z,99.90
2018-09-20T04:28:58.261Z,99.90
2018-09-20T04:31:27.285Z,99.90
2018-09-20T04:33:56.008Z,99.90
2018-09-20T04:36:24.469Z,99.90
2018-09-20T04:38:52.925Z,99.90
2018-09-20T04:41:21.436Z,99.90
2018-09-20T04:43:49.923Z,99.90
2018-09-20T04:46:18.421Z,99.90
2018-09-20T04:48:46.884Z,99.90
2018-09-20T04:51:15.376Z,99.90
2018-09-20T04:53:43.853Z,99.90
2018-09-20T04:56:12.351Z,99.90
2018-09-20T04:58:40.829Z,99.90
2018-09-20T05:01:09.769Z,99.90
2018-09-20T05:03:38.245Z,99.90
2018-09-20T05:06:06.720Z,99.90
2018-09-20T05:08:35.197Z,99.90
2018-09-20T05:11:03.680Z,99.90
2018-09-20T05:13:32.161Z,99.90
2018-09-20T05:16:00.634Z,99.90
2018-09-20T05:18:29.092Z,99.90
2018-09-20T05:20:57.600Z,99.90
2018-09-20T05:23:26.101Z,99.90
2018-09-20T05:25:54.592Z,99.90
2018-09-20T05:28:23.041Z,99.90
2018-09-20T05:30:51.565Z,99.90
2018-09-20T05:33:20.048Z,99.90
2018-09-20T05:35:48.501Z,99.90
2018-09-20T05:38:16.940Z,99.90
2018-09-20T05:40:45.428Z,99.90
2018-09-20T05:43:13.881Z,99.90
2018-09-20T05:45:42.357Z,99.90
2018-09-20T05:48:10.809Z,99.90
2018-09-20T05:50:39.357Z,99.90
2018-09-20T05:53:07.765Z,99.90
2018-09-20T05:55:36.243Z,99.90
2018-09-20T05:58:04.756Z,99.90
2018-09-20T06:00:33.281Z,99.90
2018-09-20T06:03:01.734Z,99.90
2018-09-20T06:05:30.201Z,99.90
2018-09-20T06:07:58.724Z,99.90
2018-09-20T06:10:27.181Z,99.90
2018-09-20T06:12:55.672Z,99.90
2018-09-20T06:15:24.129Z,99.90
2018-09-20T06:17:52.612Z,99.90
2018-09-20T06:20:21.069Z,99.90
2018-09-20T06:22:49.540Z,99.90
2018-09-20T06:25:18.008Z,99.90
2018-09-20T06:27:46.575Z,99.90
2018-09-20T06:30:14.957Z,99.90
2018-09-20T06:32:43.444Z,99.90
2018-09-20T06:35:11.920Z,99.90
2018-09-20T06:37:40.416Z,99.90
2018-09-20T06:40:08.928Z,99.90
2018-09-20T06:42:37.380Z,99.90
2018-09-20T06:45:05.937Z,99.90
2018-09-20T06:47:34.392Z,99.90
2018-09-20T06:50:02.912Z,99.90
2018-09-20T06:52:31.388Z,99.90
2018-09-20T06:54:59.837Z,99.90
2018-09-20T06:57:32.524Z,99.90
2018-09-20T07:00:00.985Z,99.90
2018-09-20T07:02:29.471Z,99.90
2018-09-20T07:04:57.929Z,99.90
2018-09-20T07:07:26.661Z,99.90
2018-09-20T07:09:55.113Z,99.90
2018-09-20T07:12:23.593Z,99.90
2018-09-20T07:14:52.051Z,99.90
2018-09-20T07:17:20.503Z,99.90
2018-09-20T07:19:49.030Z,99.90
2018-09-20T07:22:17.521Z,99.90
2018-09-20T07:24:46.200Z,99.90
2018-09-20T07:27:14.689Z,99.90
2018-09-20T07:29:43.164Z,99.90
2018-09-20T07:32:11.629Z,99.90
2018-09-20T07:34:40.109Z,99.90
2018-09-20T07:37:08.577Z,99.90
2018-09-20T07:39:37.084Z,99.90
2018-09-20T07:42:05.573Z,99.90
2018-09-20T07:44:34.062Z,99.90
2018-09-20T07:47:02.514Z,99.90
2018-09-20T07:49:30.970Z,99.90
2018-09-20T07:51:59.449Z,99.90
2018-09-20T07:54:27.981Z,99.90
2018-09-20T07:56:56.475Z,99.90
2018-09-20T07:59:24.936Z,99.90
2018-09-20T08:01:53.423Z,99.90
2018-09-20T08:04:21.964Z,99.90
2018-09-20T08:06:50.589Z,99.90
2018-09-20T08:09:19.048Z,99.90
2018-09-20T08:11:47.557Z,99.90
2018-09-20T08:14:16.009Z,99.90
2018-09-20T08:16:44.467Z,99.90
2018-09-20T08:19:14.675Z,99.90
2018-09-20T08:21:43.168Z,99.90
2018-09-20T08:24:11.673Z,99.90
2018-09-20T08:26:40.158Z,99.90
2018-09-20T08:29:08.669Z,99.90
2018-09-20T08:31:37.144Z,99.90
2018-09-20T08:34:05.663Z,99.90
2018-09-20T08:36:34.133Z,99.90
2018-09-20T08:39:02.689Z,99.90
2018-09-20T08:41:31.201Z,99.90
2018-09-20T08:43:59.677Z,99.90
2018-09-20T08:46:28.177Z,99.90
2018-09-20T08:48:56.700Z,99.90
2018-09-20T08:51:25.184Z,99.90
2018-09-20T08:53:53.662Z,99.90
2018-09-20T08:56:22.157Z,99.90
2018-09-20T08:58:50.621Z,99.90
2018-09-20T09:01:19.081Z,99.90
2018-09-20T09:03:47.646Z,99.90
2018-09-20T09:06:16.140Z,99.90
2018-09-20T09:08:44.632Z,99.90
2018-09-20T09:11:13.128Z,99.90
2018-09-20T09:13:41.613Z,99.90
2018-09-20T09:16:10.068Z,99.90
2018-09-20T09:18:38.530Z,99.90
2018-09-20T09:21:07.010Z,99.90
2018-09-20T09:23:35.464Z,99.90
2018-09-20T09:26:03.948Z,98.60
2018-09-20T09:28:32.406Z,97.30
2018-09-20T09:31:00.902Z,94.20
2018-09-20T09:33:29.348Z,91.00
2018-09-20T09:35:57.829Z,84.80
2018-09-20T09:38:26.288Z,75.60
2018-09-20T09:40:54.741Z,67.40
2018-09-20T09:43:23.197Z,60.40
2018-09-20T09:45:51.644Z,55.40
2018-09-20T09:48:20.205Z,51.40
2018-09-20T09:50:48.665Z,48.30
2018-09-20T09:53:17.188Z,45.30
2018-09-20T09:55:45.637Z,43.70
2018-09-20T09:58:14.124Z,42.60
2018-09-20T10:00:43.001Z,40.30
2018-09-20T10:03:11.462Z,39.40
2018-09-20T10:05:39.940Z,39.00
2018-09-20T10:08:08.404Z,37.00
2018-09-20T10:10:36.880Z,35.60
2018-09-20T10:13:05.653Z,34.50
2018-09-20T10:15:34.133Z,35.00
2018-09-20T10:18:02.592Z,34.70
2018-09-20T10:20:31.077Z,33.20
2018-09-20T10:22:59.582Z,33.40
2018-09-20T10:25:28.065Z,32.50
2018-09-20T10:27:56.551Z,30.90
2018-09-20T10:30:25.033Z,30.10
2018-09-20T10:32:53.486Z,30.30
2018-09-20T10:35:21.972Z,29.70
2018-09-20T10:37:50.420Z,29.10
2018-09-20T10:40:18.873Z,28.50
2018-09-20T10:42:47.352Z,28.80
2018-09-20T10:45:15.806Z,28.80
2018-09-20T10:47:44.276Z,28.30
2018-09-20T10:50:12.736Z,28.50
2018-09-20T10:52:41.206Z,28.70
2018-09-20T10:55:09.662Z,29.20
2018-09-20T10:57:38.153Z,28.80
2018-09-20T11:00:06.677Z,28.70
2018-09-20T11:02:35.128Z,29.20
2018-09-20T11:05:03.641Z,30.00
2018-09-20T11:07:32.097Z,30.70
2018-09-20T11:10:00.572Z,31.40
2018-09-20T11:12:29.029Z,31.80
2018-09-20T11:14:57.508Z,31.90
2018-09-20T11:17:25.953Z,32.50
2018-09-20T11:19:54.429Z,32.90
2018-09-20T11:22:22.880Z,33.30
2018-09-20T11:24:51.332Z,33.60
2018-09-20T11:27:19.796Z,34.90
2018-09-20T11:29:48.280Z,35.20
2018-09-20T11:32:16.786Z,36.90
2018-09-20T11:34:45.197Z,38.70
2018-09-20T11:37:13.674Z,40.00
2018-09-20T11:39:42.124Z,40.60
2018-09-20T11:42:10.604Z,41.50
2018-09-20T11:44:39.050Z,41.40
2018-09-20T11:47:07.545Z,41.00
2018-09-20T11:49:35.998Z,42.20
2018-09-20T11:52:04.484Z,43.00
2018-09-20T11:54:32.963Z,42.80
2018-09-20T11:57:01.464Z,41.40
2018-09-20T11:59:29.929Z,40.50
2018-09-20T12:01:58.423Z,39.10
2018-09-20T12:04:26.952Z,38.80
2018-09-20T12:06:55.421Z,37.90
2018-09-20T12:09:23.921Z,37.60
2018-09-20T12:11:52.378Z,36.80
2018-09-20T12:14:20.993Z,36.10
2018-09-20T12:16:49.452Z,36.40
2018-09-20T12:19:17.909Z,37.90
2018-09-20T12:21:46.388Z,39.40
2018-09-20T12:24:14.836Z,40.00
2018-09-20T12:26:43.320Z,39.30
2018-09-20T12:29:11.769Z,39.60
2018-09-20T12:31:40.248Z,39.00
2018-09-20T12:34:08.701Z,39.40
2018-09-20T12:36:37.189Z,39.80
2018-09-20T12:39:08.701Z,39.60
2018-09-20T12:41:37.233Z,39.70
2018-09-20T12:44:05.700Z,39.80
2018-09-20T12:46:34.156Z,39.50
2018-09-20T12:49:02.820Z,38.70
2018-09-20T12:51:31.310Z,38.50
2018-09-20T12:53:59.794Z,38.90
2018-09-20T12:56:28.261Z,38.80
2018-09-20T12:58:56.757Z,37.70
2018-09-20T13:01:25.229Z,38.10
2018-09-20T13:03:53.720Z,38.10
2018-09-20T13:06:22.168Z,37.70
2018-09-20T13:08:50.641Z,37.80
2018-09-20T13:11:19.769Z,37.60
2018-09-20T13:13:48.253Z,36.90
2018-09-20T13:16:16.728Z,35.80
2018-09-20T13:18:45.192Z,34.80
2018-09-20T13:21:13.716Z,35.00
2018-09-20T13:23:42.201Z,34.80
2018-09-20T13:26:10.757Z,34.20
2018-09-20T13:28:39.240Z,33.90
2018-09-20T13:31:07.692Z,33.80
2018-09-20T13:33:36.172Z,35.40
2018-09-20T13:36:04.685Z,35.70
2018-09-20T13:38:33.187Z,36.80
2018-09-20T13:41:01.694Z,35.80
2018-09-20T13:43:30.207Z,35.70
2018-09-20T13:45:58.672Z,36.00
2018-09-20T13:48:27.513Z,35.00
2018-09-20T13:50:55.996Z,35.10
2018-09-20T13:53:24.453Z,35.30
2018-09-20T13:55:52.953Z,35.90
2018-09-20T13:58:21.413Z,36.30
2018-09-20T14:00:50.153Z,36.40
2018-09-20T14:03:18.596Z,35.90
2018-09-20T14:05:47.099Z,36.40
2018-09-20T14:08:15.555Z,37.40
2018-09-20T14:10:44.009Z,37.50
2018-09-20T14:13:13.009Z,36.80
2018-09-20T14:15:41.489Z,37.20
2018-09-20T14:18:09.973Z,37.00
2018-09-20T14:20:38.433Z,37.90
2018-09-20T14:23:06.925Z,38.70
2018-09-20T14:25:35.465Z,39.10
2018-09-20T14:28:03.949Z,39.70
2018-09-20T14:30:32.445Z,40.00
2018-09-20T14:33:00.925Z,40.10
2018-09-20T14:35:29.414Z,40.10
2018-09-20T14:37:57.880Z,40.10
2018-09-20T14:40:26.383Z,40.00
2018-09-20T14:42:54.862Z,39.90
2018-09-20T14:45:23.329Z,39.30
2018-09-20T14:47:51.810Z,39.30
2018-09-20T14:50:20.269Z,39.10
2018-09-20T14:52:48.806Z,38.80
2018-09-20T14:55:17.249Z,39.10
2018-09-20T14:57:45.772Z,39.10
2018-09-20T15:00:14.265Z,39.00
2018-09-20T15:02:42.744Z,38.70
2018-09-20T15:05:11.275Z,38.90
2018-09-20T15:07:39.725Z,38.70
2018-09-20T15:10:08.246Z,38.90
2018-09-20T15:12:36.698Z,38.90
2018-09-20T15:15:05.369Z,39.00
2018-09-20T15:17:33.804Z,39.10
2018-09-20T15:20:02.321Z,39.50
2018-09-20T15:22:30.789Z,40.00
2018-09-20T15:24:59.248Z,39.30
2018-09-20T15:27:27.728Z,39.30
2018-09-20T15:29:56.181Z,39.00
2018-09-20T15:32:24.663Z,39.30
2018-09-20T15:34:53.179Z,39.60
2018-09-20T15:37:21.661Z,39.90
2018-09-20T15:39:50.166Z,39.70
2018-09-20T15:42:18.637Z,39.90
2018-09-20T15:44:47.101Z,39.70
2018-09-20T15:47:15.599Z,39.60
2018-09-20T15:49:44.085Z,39.70
2018-09-20T15:52:12.584Z,39.40
2018-09-20T15:54:41.048Z,40.10
2018-09-20T15:57:09.529Z,39.70
2018-09-20T15:59:38.000Z,39.30
2018-09-20T16:02:07.301Z,39.50
2018-09-20T16:04:35.756Z,39.10
2018-09-20T16:07:04.246Z,38.50
2018-09-20T16:09:32.704Z,38.40
2018-09-20T16:12:01.188Z,38.40
2018-09-20T16:14:29.671Z,38.60
2018-09-20T16:16:58.165Z,39.00
2018-09-20T16:19:26.630Z,39.30
2018-09-20T16:21:55.132Z,39.40
2018-09-20T16:24:23.604Z,39.70
2018-09-20T16:26:52.105Z,39.90
2018-09-20T16:29:36.000Z,39.80
2018-09-20T16:32:56.188Z,39.70
2018-09-20T16:35:42.108Z,39.80
2018-09-20T16:38:39.320Z,40.00
2018-09-20T16:41:10.108Z,40.00
2018-09-20T16:43:38.612Z,39.90
2018-09-20T16:46:07.109Z,39.90
2018-09-20T16:48:35.597Z,40.10
2018-09-20T16:51:04.069Z,40.20
2018-09-20T16:53:32.533Z,40.40
2018-09-20T16:56:01.013Z,40.20
2018-09-20T16:58:29.476Z,40.40
2018-09-20T17:00:57.964Z,40.60
2018-09-20T17:03:26.427Z,40.80
2018-09-20T17:05:54.926Z,41.00
2018-09-20T17:08:23.393Z,41.20
2018-09-20T17:10:51.897Z,41.10
2018-09-20T17:13:20.444Z,41.00
2018-09-20T17:15:48.864Z,40.80
2018-09-20T17:18:17.350Z,41.20
2018-09-20T17:20:45.827Z,41.60
2018-09-20T17:23:14.312Z,41.30
2018-09-20T17:25:42.781Z,41.30
2018-09-20T17:28:11.257Z,41.10
2018-09-20T17:30:39.700Z,41.70
2018-09-20T17:33:08.200Z,42.50
2018-09-20T17:35:37.224Z,42.40
2018-09-20T17:38:07.052Z,42.70
2018-09-20T17:40:36.588Z,43.20
2018-09-20T17:43:07.502Z,43.20
2018-09-20T17:45:35.983Z,43.10
2018-09-20T17:48:04.462Z,43.30
2018-09-20T17:50:33.002Z,43.70
2018-09-20T17:53:01.844Z,43.90
2018-09-20T17:55:30.750Z,43.60
2018-09-20T17:57:59.877Z,43.60
2018-09-20T18:00:28.363Z,43.50
2018-09-20T18:02:56.872Z,44.10
2018-09-20T18:05:25.313Z,44.30
2018-09-20T18:07:54.077Z,44.30
2018-09-20T18:10:22.636Z,44.60
2018-09-20T18:15:54.234Z,44.60
2018-09-20T18:18:22.796Z,44.50
2018-09-20T18:20:51.305Z,44.10
2018-09-20T18:23:19.910Z,44.50
2018-09-20T18:25:48.422Z,43.90
2018-09-20T18:28:16.938Z,44.30
2018-09-20T18:30:45.462Z,44.60
2018-09-20T18:33:14.329Z,44.40
2018-09-20T18:35:42.909Z,44.40
2018-09-20T18:38:11.654Z,44.40
2018-09-20T18:40:40.149Z,44.20
2018-09-20T18:43:08.761Z,45.10
2018-09-20T18:45:37.269Z,45.40
2018-09-20T18:48:05.786Z,45.70
2018-09-20T18:50:34.329Z,45.90
2018-09-20T18:53:02.816Z,46.10
2018-09-20T18:55:31.382Z,46.10
2018-09-20T18:57:59.897Z,46.30
2018-09-20T19:00:28.408Z,47.20
2018-09-20T19:02:56.880Z,48.30
2018-09-20T19:05:25.409Z,48.50
2018-09-20T19:07:53.917Z,48.60
2018-09-20T19:10:22.433Z,48.60
2018-09-20T19:12:50.996Z,48.90
2018-09-20T19:15:19.492Z,49.10
2018-09-20T19:17:48.009Z,49.30
2018-09-20T19:20:16.601Z,49.50
2018-09-20T19:22:45.120Z,49.50
2018-09-20T19:25:13.682Z,49.50
2018-09-20T19:27:42.342Z,49.70
2018-09-20T19:30:10.730Z,49.70
2018-09-20T19:32:39.277Z,49.90
2018-09-20T19:35:07.865Z,50.20
2018-09-20T19:37:36.409Z,50.50
2018-09-20T19:40:05.025Z,50.70
2018-09-20T19:42:33.588Z,51.00
2018-09-20T19:45:02.137Z,51.20
2018-09-20T19:47:30.733Z,51.60
2018-09-20T19:49:59.254Z,51.70
2018-09-20T19:52:27.786Z,52.00
2018-09-20T19:54:56.316Z,52.60
2018-09-20T19:57:24.828Z,52.50
2018-09-20T19:59:53.330Z,52.70
2018-09-20T20:02:21.886Z,52.80
2018-09-20T20:04:50.405Z,52.70
2018-09-20T20:07:19.014Z,53.00
2018-09-20T20:09:47.553Z,53.10
2018-09-20T20:12:16.092Z,53.40
2018-09-20T20:14:44.669Z,53.50
2018-09-20T20:17:13.248Z,53.70
2018-09-20T20:19:41.813Z,54.10
2018-09-20T20:22:10.344Z,54.10
2018-09-20T20:24:38.894Z,54.30
2018-09-20T20:27:07.533Z,54.50
2018-09-20T20:29:36.108Z,54.80
2018-09-20T20:32:04.674Z,54.80
2018-09-20T20:34:33.245Z,55.00
2018-09-20T20:37:01.742Z,55.10
2018-09-20T20:39:30.323Z,55.10
2018-09-20T20:41:58.994Z,55.50
2018-09-20T20:44:27.573Z,55.30
2018-09-20T20:46:56.296Z,56.10
2018-09-20T20:49:24.840Z,55.70
2018-09-20T20:51:53.341Z,56.20
2018-09-20T20:54:21.889Z,56.40
2018-09-20T20:56:50.462Z,56.50
2018-09-20T20:59:18.989Z,56.60
2018-09-20T21:01:47.499Z,56.50
2018-09-20T21:04:16.046Z,57.00
2018-09-20T21:06:44.586Z,57.00
2018-09-20T21:09:13.140Z,57.30
2018-09-20T21:11:41.654Z,57.20
2018-09-20T21:14:10.213Z,57.30
2018-09-20T21:16:38.744Z,57.60
2018-09-20T21:19:07.502Z,57.90
2018-09-20T21:21:36.033Z,58.10
2018-09-20T21:24:04.716Z,58.40
2018-09-20T21:26:33.230Z,58.60
2018-09-20T21:29:01.716Z,58.70
2018-09-20T21:31:30.218Z,59.40
2018-09-20T21:33:58.789Z,59.70
2018-09-20T21:36:27.328Z,60.00
2018-09-20T21:38:56.128Z,60.30
2018-09-20T21:41:25.073Z,61.30
2018-09-20T21:43:53.537Z,62.30
2018-09-20T21:46:22.080Z,63.30
2018-09-20T21:48:50.532Z,63.80
2018-09-20T21:51:19.020Z,64.60
2018-09-20T21:53:47.468Z,64.20
2018-09-20T21:56:15.981Z,64.50
2018-09-20T21:58:44.495Z,65.00
2018-09-20T22:01:13.784Z,65.10
2018-09-20T22:03:42.268Z,65.50
2018-09-20T22:06:10.716Z,66.10
2018-09-20T22:08:39.216Z,66.50
2018-09-20T22:11:07.688Z,66.90
2018-09-20T22:13:36.223Z,67.70
2018-09-20T22:16:04.744Z,68.20
2018-09-20T22:18:33.220Z,68.90
2018-09-20T22:21:01.684Z,69.50
2018-09-20T22:23:30.183Z,70.30
2018-09-20T22:25:58.656Z,70.80
2018-09-20T22:28:27.152Z,71.50
2018-09-20T22:30:55.612Z,72.60
2018-09-20T22:33:24.093Z,73.70
2018-09-20T22:35:52.637Z,74.90
2018-09-20T22:38:21.093Z,75.40
2018-09-20T22:40:49.592Z,76.40
2018-09-20T22:43:18.061Z,76.80
2018-09-20T22:45:46.540Z,77.70
2018-09-20T22:48:15.005Z,78.80
2018-09-20T22:50:43.500Z,79.70
2018-09-20T22:53:11.968Z,81.20
2018-09-20T22:55:40.465Z,82.60
2018-09-20T22:58:08.924Z,84.30
2018-09-20T23:00:37.432Z,86.20
2018-09-20T23:03:06.237Z,90.00
2018-09-20T23:05:34.741Z,92.30
2018-09-20T23:08:03.207Z,93.80
2018-09-20T23:10:31.706Z,94.10
2018-09-20T23:13:00.172Z,94.30
2018-09-20T23:15:28.696Z,93.40
2018-09-20T23:17:57.151Z,93.30
2018-09-20T23:20:25.668Z,93.80
2018-09-20T23:22:54.197Z,94.20
2018-09-20T23:25:22.656Z,94.80
2018-09-20T23:27:51.129Z,95.20
2018-09-20T23:30:19.596Z,95.50
2018-09-20T23:32:48.077Z,96.00
2018-09-20T23:35:16.548Z,96.20
2018-09-20T23:37:45.041Z,96.70
2018-09-20T23:40:13.517Z,97.00
2018-09-20T23:42:42.005Z,97.00
2018-09-20T23:45:10.471Z,97.20
2018-09-20T23:47:38.968Z,97.30
2018-09-20T23:50:07.464Z,97.20
2018-09-20T23:52:35.940Z,97.30
2018-09-20T23:55:04.440Z,97.10
2018-09-20T23:57:32.940Z,97.50
